sensor_id;sensor_type;location;lat;lon;timestamp;P1;durP1;ratioP1;P2;durP2;ratioP2
72584;SDS011;60618;40.084;32.908;2022-11-12T00:00:57;20.40;;;9.30;;
72584;SDS011;60618;40.084;32.908;2022-11-12T00:03:24;20.98;;;9.48;;
72584;SDS011;60618;40.084;32.908;2022-11-12T00:05:52;22.00;;;10.38;;
72584;SDS011;60618;40.084;32.908;2022-11-12T00:08:19;21.30;;;10.23;;
72584;SDS011;60618;40.084;32.908;2022-11-12T00:10:46;21.00;;;10.30;;
72584;SDS011;60618;40.084;32.908;2022-11-12T00:13:13;21.10;;;10.27;;
72584;SDS011;60618;40.084;32.908;2022-11-12T00:15:40;21.25;;;10.00;;
72584;SDS011;60618;40.084;32.908;2022-11-12T00:18:07;21.60;;;10.15;;
72584;SDS011;60618;40.084;32.908;2022-11-12T00:20:34;21.92;;;10.23;;
72584;SDS011;60618;40.084;32.908;2022-11-12T00:23:01;22.07;;;9.67;;
72584;SDS011;60618;40.084;32.908;2022-11-12T00:25:28;21.83;;;11.00;;
72584;SDS011;60618;40.084;32.908;2022-11-12T00:28:02;22.48;;;10.75;;
72584;SDS011;60618;40.084;32.908;2022-11-12T00:30:38;22.58;;;10.40;;
72584;SDS011;60618;40.084;32.908;2022-11-12T00:33:06;21.85;;;10.20;;
72584;SDS011;60618;40.084;32.908;2022-11-12T00:35:33;24.53;;;10.53;;
72584;SDS011;60618;40.084;32.908;2022-11-12T00:38:00;25.50;;;10.55;;
72584;SDS011;60618;40.084;32.908;2022-11-12T00:40:27;23.33;;;10.57;;
72584;SDS011;60618;40.084;32.908;2022-11-12T00:42:54;23.05;;;10.23;;
72584;SDS011;60618;40.084;32.908;2022-11-12T00:45:21;23.50;;;10.73;;
72584;SDS011;60618;40.084;32.908;2022-11-12T00:47:49;23.27;;;10.60;;
72584;SDS011;60618;40.084;32.908;2022-11-12T00:50:19;22.98;;;10.48;;
72584;SDS011;60618;40.084;32.908;2022-11-12T00:52:48;23.23;;;10.52;;
72584;SDS011;60618;40.084;32.908;2022-11-12T00:55:17;26.27;;;10.68;;
72584;SDS011;60618;40.084;32.908;2022-11-12T00:57:44;25.17;;;11.73;;
72584;SDS011;60618;40.084;32.908;2022-11-12T01:00:13;26.37;;;11.77;;
72584;SDS011;60618;40.084;32.908;2022-11-12T01:02:41;24.42;;;11.63;;
72584;SDS011;60618;40.084;32.908;2022-11-12T01:05:16;24.52;;;11.48;;
72584;SDS011;60618;40.084;32.908;2022-11-12T01:07:43;26.52;;;11.65;;
72584;SDS011;60618;40.084;32.908;2022-11-12T01:10:10;25.73;;;12.10;;
72584;SDS011;60618;40.084;32.908;2022-11-12T01:12:38;26.30;;;11.83;;
72584;SDS011;60618;40.084;32.908;2022-11-12T01:15:06;26.27;;;11.75;;
72584;SDS011;60618;40.084;32.908;2022-11-12T01:17:33;29.50;;;12.15;;
72584;SDS011;60618;40.084;32.908;2022-11-12T01:20:00;26.40;;;11.60;;
72584;SDS011;60618;40.084;32.908;2022-11-12T01:22:27;28.83;;;11.75;;
72584;SDS011;60618;40.084;32.908;2022-11-12T01:24:54;27.60;;;12.73;;
72584;SDS011;60618;40.084;32.908;2022-11-12T01:27:21;28.27;;;12.60;;
72584;SDS011;60618;40.084;32.908;2022-11-12T01:29:48;26.88;;;12.02;;
72584;SDS011;60618;40.084;32.908;2022-11-12T01:32:15;26.13;;;11.95;;
72584;SDS011;60618;40.084;32.908;2022-11-12T01:34:41;26.08;;;11.77;;
72584;SDS011;60618;40.084;32.908;2022-11-12T01:37:09;26.13;;;12.03;;
72584;SDS011;60618;40.084;32.908;2022-11-12T01:39:37;28.60;;;12.45;;
72584;SDS011;60618;40.084;32.908;2022-11-12T01:42:04;26.33;;;12.30;;
72584;SDS011;60618;40.084;32.908;2022-11-12T01:44:31;27.42;;;12.50;;
72584;SDS011;60618;40.084;32.908;2022-11-12T01:49:46;27.63;;;12.33;;
72584;SDS011;60618;40.084;32.908;2022-11-12T01:52:57;26.98;;;12.20;;
72584;SDS011;60618;40.084;32.908;2022-11-12T01:55:30;29.88;;;13.20;;
72584;SDS011;60618;40.084;32.908;2022-11-12T01:58:04;29.58;;;13.27;;
72584;SDS011;60618;40.084;32.908;2022-11-12T02:00:43;31.05;;;13.38;;
72584;SDS011;60618;40.084;32.908;2022-11-12T02:03:15;29.33;;;12.57;;
72584;SDS011;60618;40.084;32.908;2022-11-12T02:05:46;33.88;;;13.85;;
72584;SDS011;60618;40.084;32.908;2022-11-12T02:08:17;31.15;;;13.35;;
72584;SDS011;60618;40.084;32.908;2022-11-12T02:10:45;29.88;;;12.77;;
72584;SDS011;60618;40.084;32.908;2022-11-12T02:13:11;27.50;;;12.60;;
72584;SDS011;60618;40.084;32.908;2022-11-12T02:15:38;29.47;;;12.93;;
72584;SDS011;60618;40.084;32.908;2022-11-12T02:18:07;33.08;;;12.95;;
72584;SDS011;60618;40.084;32.908;2022-11-12T02:20:36;29.20;;;13.48;;
72584;SDS011;60618;40.084;32.908;2022-11-12T02:23:04;28.77;;;13.13;;
72584;SDS011;60618;40.084;32.908;2022-11-12T02:25:32;28.98;;;13.52;;
72584;SDS011;60618;40.084;32.908;2022-11-12T02:28:01;30.13;;;13.50;;
72584;SDS011;60618;40.084;32.908;2022-11-12T02:30:32;31.33;;;13.48;;
72584;SDS011;60618;40.084;32.908;2022-11-12T02:33:02;29.23;;;13.95;;
72584;SDS011;60618;40.084;32.908;2022-11-12T02:35:29;29.33;;;14.10;;
72584;SDS011;60618;40.084;32.908;2022-11-12T02:37:57;29.25;;;13.10;;
72584;SDS011;60618;40.084;32.908;2022-11-12T02:40:25;31.10;;;13.97;;
72584;SDS011;60618;40.084;32.908;2022-11-12T02:42:51;30.98;;;13.55;;
72584;SDS011;60618;40.084;32.908;2022-11-12T02:45:18;30.52;;;14.02;;
72584;SDS011;60618;40.084;32.908;2022-11-12T02:47:45;31.42;;;14.25;;
72584;SDS011;60618;40.084;32.908;2022-11-12T02:50:12;29.10;;;12.50;;
72584;SDS011;60618;40.084;32.908;2022-11-12T02:52:40;30.50;;;13.07;;
72584;SDS011;60618;40.084;32.908;2022-11-12T02:55:08;29.92;;;12.80;;
72584;SDS011;60618;40.084;32.908;2022-11-12T02:57:36;29.45;;;13.10;;
72584;SDS011;60618;40.084;32.908;2022-11-12T03:00:04;29.92;;;13.07;;
72584;SDS011;60618;40.084;32.908;2022-11-12T03:02:33;29.98;;;13.00;;
72584;SDS011;60618;40.084;32.908;2022-11-12T03:05:00;33.37;;;13.73;;
72584;SDS011;60618;40.084;32.908;2022-11-12T03:07:27;32.03;;;13.60;;
72584;SDS011;60618;40.084;32.908;2022-11-12T03:09:54;30.58;;;13.40;;
72584;SDS011;60618;40.084;32.908;2022-11-12T03:12:21;31.42;;;13.70;;
72584;SDS011;60618;40.084;32.908;2022-11-12T03:14:48;29.90;;;13.65;;
72584;SDS011;60618;40.084;32.908;2022-11-12T03:17:15;29.07;;;12.80;;
72584;SDS011;60618;40.084;32.908;2022-11-12T03:19:41;31.25;;;13.15;;
72584;SDS011;60618;40.084;32.908;2022-11-12T03:22:08;32.40;;;12.88;;
72584;SDS011;60618;40.084;32.908;2022-11-12T03:24:35;30.30;;;12.65;;
72584;SDS011;60618;40.084;32.908;2022-11-12T03:27:03;30.15;;;13.05;;
72584;SDS011;60618;40.084;32.908;2022-11-12T03:29:30;29.97;;;13.87;;
72584;SDS011;60618;40.084;32.908;2022-11-12T03:31:56;26.25;;;12.32;;
72584;SDS011;60618;40.084;32.908;2022-11-12T03:34:23;32.00;;;13.68;;
72584;SDS011;60618;40.084;32.908;2022-11-12T03:36:50;34.33;;;14.18;;
72584;SDS011;60618;40.084;32.908;2022-11-12T03:39:17;29.80;;;12.82;;
72584;SDS011;60618;40.084;32.908;2022-11-12T03:41:44;30.67;;;13.33;;
72584;SDS011;60618;40.084;32.908;2022-11-12T03:44:11;29.88;;;14.18;;
72584;SDS011;60618;40.084;32.908;2022-11-12T03:46:38;32.22;;;12.85;;
72584;SDS011;60618;40.084;32.908;2022-11-12T03:49:09;33.35;;;13.82;;
72584;SDS011;60618;40.084;32.908;2022-11-12T03:51:36;31.73;;;14.18;;
72584;SDS011;60618;40.084;32.908;2022-11-12T03:54:03;31.50;;;14.17;;
72584;SDS011;60618;40.084;32.908;2022-11-12T03:56:30;31.48;;;13.65;;
72584;SDS011;60618;40.084;32.908;2022-11-12T03:58:57;31.33;;;13.43;;
72584;SDS011;60618;40.084;32.908;2022-11-12T04:01:23;26.95;;;12.45;;
72584;SDS011;60618;40.084;32.908;2022-11-12T04:03:50;28.50;;;12.70;;
72584;SDS011;60618;40.084;32.908;2022-11-12T04:06:17;30.53;;;13.00;;
72584;SDS011;60618;40.084;32.908;2022-11-12T04:08:44;29.25;;;12.75;;
72584;SDS011;60618;40.084;32.908;2022-11-12T04:11:12;31.13;;;13.38;;
72584;SDS011;60618;40.084;32.908;2022-11-12T04:13:41;31.17;;;13.27;;
72584;SDS011;60618;40.084;32.908;2022-11-12T04:18:37;32.30;;;13.43;;
72584;SDS011;60618;40.084;32.908;2022-11-12T04:21:06;32.63;;;12.77;;
72584;SDS011;60618;40.084;32.908;2022-11-12T04:23:34;31.90;;;13.77;;
72584;SDS011;60618;40.084;32.908;2022-11-12T04:26:01;34.10;;;14.32;;
72584;SDS011;60618;40.084;32.908;2022-11-12T04:28:28;31.45;;;14.27;;
72584;SDS011;60618;40.084;32.908;2022-11-12T04:30:56;32.53;;;13.60;;
72584;SDS011;60618;40.084;32.908;2022-11-12T04:33:22;31.95;;;13.77;;
72584;SDS011;60618;40.084;32.908;2022-11-12T04:35:49;32.63;;;14.07;;
72584;SDS011;60618;40.084;32.908;2022-11-12T04:38:16;34.05;;;14.40;;
72584;SDS011;60618;40.084;32.908;2022-11-12T04:40:43;32.10;;;13.02;;
72584;SDS011;60618;40.084;32.908;2022-11-12T04:43:10;30.70;;;12.63;;
72584;SDS011;60618;40.084;32.908;2022-11-12T04:45:39;31.25;;;13.52;;
72584;SDS011;60618;40.084;32.908;2022-11-12T04:48:07;30.15;;;13.57;;
72584;SDS011;60618;40.084;32.908;2022-11-12T04:50:34;32.13;;;13.77;;
72584;SDS011;60618;40.084;32.908;2022-11-12T04:53:02;34.05;;;15.05;;
72584;SDS011;60618;40.084;32.908;2022-11-12T04:55:30;30.87;;;13.30;;
72584;SDS011;60618;40.084;32.908;2022-11-12T04:57:57;33.58;;;13.95;;
72584;SDS011;60618;40.084;32.908;2022-11-12T05:00:26;33.97;;;13.85;;
72584;SDS011;60618;40.084;32.908;2022-11-12T05:02:53;35.22;;;14.60;;
72584;SDS011;60618;40.084;32.908;2022-11-12T05:05:20;30.75;;;13.95;;
72584;SDS011;60618;40.084;32.908;2022-11-12T05:07:47;33.80;;;14.20;;
72584;SDS011;60618;40.084;32.908;2022-11-12T05:10:14;31.10;;;13.63;;
72584;SDS011;60618;40.084;32.908;2022-11-12T05:12:42;30.80;;;13.20;;
72584;SDS011;60618;40.084;32.908;2022-11-12T05:15:09;34.13;;;14.88;;
72584;SDS011;60618;40.084;32.908;2022-11-12T05:17:42;31.88;;;14.27;;
72584;SDS011;60618;40.084;32.908;2022-11-12T05:32:34;34.38;;;16.92;;
72584;SDS011;60618;40.084;32.908;2022-11-12T05:35:00;32.15;;;14.88;;
72584;SDS011;60618;40.084;32.908;2022-11-12T05:37:27;32.77;;;15.30;;
72584;SDS011;60618;40.084;32.908;2022-11-12T05:39:54;31.67;;;14.73;;
72584;SDS011;60618;40.084;32.908;2022-11-12T05:42:21;35.58;;;15.38;;
72584;SDS011;60618;40.084;32.908;2022-11-12T05:44:48;31.95;;;14.50;;
72584;SDS011;60618;40.084;32.908;2022-11-12T05:47:15;33.28;;;15.05;;
72584;SDS011;60618;40.084;32.908;2022-11-12T05:49:42;34.87;;;15.83;;
72584;SDS011;60618;40.084;32.908;2022-11-12T05:52:09;33.70;;;15.18;;
72584;SDS011;60618;40.084;32.908;2022-11-12T05:54:36;34.25;;;15.43;;
72584;SDS011;60618;40.084;32.908;2022-11-12T05:57:03;32.90;;;15.18;;
72584;SDS011;60618;40.084;32.908;2022-11-12T05:59:29;32.78;;;15.15;;
72584;SDS011;60618;40.084;32.908;2022-11-12T06:01:58;30.93;;;13.77;;
72584;SDS011;60618;40.084;32.908;2022-11-12T06:04:25;34.20;;;14.82;;
72584;SDS011;60618;40.084;32.908;2022-11-12T06:06:54;32.67;;;14.60;;
72584;SDS011;60618;40.084;32.908;2022-11-12T06:09:21;33.35;;;14.55;;
72584;SDS011;60618;40.084;32.908;2022-11-12T06:11:50;32.80;;;14.35;;
72584;SDS011;60618;40.084;32.908;2022-11-12T06:14:17;32.07;;;14.57;;
72584;SDS011;60618;40.084;32.908;2022-11-12T06:16:44;32.72;;;14.55;;
72584;SDS011;60618;40.084;32.908;2022-11-12T06:19:11;30.15;;;13.82;;
72584;SDS011;60618;40.084;32.908;2022-11-12T06:21:38;30.98;;;14.57;;
72584;SDS011;60618;40.084;32.908;2022-11-12T06:24:06;35.85;;;16.02;;
72584;SDS011;60618;40.084;32.908;2022-11-12T06:26:36;34.77;;;15.37;;
72584;SDS011;60618;40.084;32.908;2022-11-12T06:29:03;32.88;;;14.95;;
72584;SDS011;60618;40.084;32.908;2022-11-12T06:31:30;34.47;;;15.40;;
72584;SDS011;60618;40.084;32.908;2022-11-12T06:33:56;35.45;;;15.43;;
72584;SDS011;60618;40.084;32.908;2022-11-12T06:36:23;29.05;;;14.70;;
72584;SDS011;60618;40.084;32.908;2022-11-12T06:38:50;32.27;;;14.67;;
72584;SDS011;60618;40.084;32.908;2022-11-12T06:41:17;30.67;;;14.50;;
72584;SDS011;60618;40.084;32.908;2022-11-12T06:43:44;32.17;;;14.85;;
72584;SDS011;60618;40.084;32.908;2022-11-12T06:46:12;33.05;;;15.23;;
72584;SDS011;60618;40.084;32.908;2022-11-12T06:48:40;33.65;;;14.25;;
72584;SDS011;60618;40.084;32.908;2022-11-12T06:51:08;28.93;;;13.57;;
72584;SDS011;60618;40.084;32.908;2022-11-12T06:53:43;32.95;;;14.73;;
72584;SDS011;60618;40.084;32.908;2022-11-12T06:56:10;32.17;;;14.68;;
72584;SDS011;60618;40.084;32.908;2022-11-12T06:58:38;31.50;;;14.65;;
72584;SDS011;60618;40.084;32.908;2022-11-12T07:01:07;31.20;;;14.68;;
72584;SDS011;60618;40.084;32.908;2022-11-12T07:03:38;33.43;;;14.60;;
72584;SDS011;60618;40.084;32.908;2022-11-12T07:06:06;30.10;;;14.88;;
72584;SDS011;60618;40.084;32.908;2022-11-12T07:08:37;33.17;;;15.23;;
72584;SDS011;60618;40.084;32.908;2022-11-12T07:11:04;31.58;;;14.60;;
72584;SDS011;60618;40.084;32.908;2022-11-12T07:13:33;31.00;;;14.43;;
72584;SDS011;60618;40.084;32.908;2022-11-12T07:16:01;30.83;;;14.80;;
72584;SDS011;60618;40.084;32.908;2022-11-12T07:18:30;29.67;;;14.15;;
72584;SDS011;60618;40.084;32.908;2022-11-12T07:21:01;29.48;;;14.07;;
72584;SDS011;60618;40.084;32.908;2022-11-12T07:23:33;30.15;;;14.38;;
72584;SDS011;60618;40.084;32.908;2022-11-12T07:26:23;30.23;;;14.85;;
72584;SDS011;60618;40.084;32.908;2022-11-12T07:28:50;29.40;;;14.93;;
72584;SDS011;60618;40.084;32.908;2022-11-12T07:31:18;31.48;;;14.18;;
72584;SDS011;60618;40.084;32.908;2022-11-12T07:33:46;30.50;;;14.82;;
72584;SDS011;60618;40.084;32.908;2022-11-12T07:36:14;35.15;;;14.60;;
72584;SDS011;60618;40.084;32.908;2022-11-12T07:38:42;28.05;;;13.25;;
72584;SDS011;60618;40.084;32.908;2022-11-12T07:41:17;28.27;;;13.73;;
72584;SDS011;60618;40.084;32.908;2022-11-12T07:43:46;28.42;;;14.15;;
72584;SDS011;60618;40.084;32.908;2022-11-12T07:46:15;44.47;;;15.55;;
72584;SDS011;60618;40.084;32.908;2022-11-12T07:48:46;28.58;;;14.48;;
72584;SDS011;60618;40.084;32.908;2022-11-12T07:51:15;31.50;;;14.10;;
72584;SDS011;60618;40.084;32.908;2022-11-12T07:53:44;29.20;;;14.10;;
72584;SDS011;60618;40.084;32.908;2022-11-12T07:56:18;27.58;;;13.77;;
72584;SDS011;60618;40.084;32.908;2022-11-12T07:58:46;28.35;;;13.60;;
72584;SDS011;60618;40.084;32.908;2022-11-12T08:03:55;27.02;;;13.40;;
72584;SDS011;60618;40.084;32.908;2022-11-12T08:06:23;26.97;;;13.10;;
72584;SDS011;60618;40.084;32.908;2022-11-12T08:08:51;26.50;;;13.40;;
72584;SDS011;60618;40.084;32.908;2022-11-12T08:11:18;26.70;;;13.70;;
72584;SDS011;60618;40.084;32.908;2022-11-12T08:13:45;26.55;;;13.13;;
72584;SDS011;60618;40.084;32.908;2022-11-12T08:16:12;27.33;;;13.23;;
72584;SDS011;60618;40.084;32.908;2022-11-12T08:18:39;25.97;;;13.07;;
72584;SDS011;60618;40.084;32.908;2022-11-12T08:21:07;28.23;;;14.07;;
72584;SDS011;60618;40.084;32.908;2022-11-12T08:23:37;27.65;;;13.18;;
72584;SDS011;60618;40.084;32.908;2022-11-12T08:26:08;27.65;;;13.52;;
72584;SDS011;60618;40.084;32.908;2022-11-12T08:28:37;27.65;;;13.77;;
72584;SDS011;60618;40.084;32.908;2022-11-12T08:31:14;27.43;;;12.83;;
72584;SDS011;60618;40.084;32.908;2022-11-12T08:33:43;27.95;;;13.27;;
72584;SDS011;60618;40.084;32.908;2022-11-12T08:36:10;25.08;;;13.55;;
72584;SDS011;60618;40.084;32.908;2022-11-12T08:38:39;25.63;;;12.80;;
72584;SDS011;60618;40.084;32.908;2022-11-12T08:41:07;25.77;;;13.30;;
72584;SDS011;60618;40.084;32.908;2022-11-12T08:43:36;84.57;;;15.33;;
72584;SDS011;60618;40.084;32.908;2022-11-12T08:46:04;38.10;;;13.40;;
72584;SDS011;60618;40.084;32.908;2022-11-12T08:48:33;27.48;;;13.45;;
72584;SDS011;60618;40.084;32.908;2022-11-12T08:51:02;24.40;;;12.48;;
72584;SDS011;60618;40.084;32.908;2022-11-12T08:53:30;25.95;;;13.15;;
72584;SDS011;60618;40.084;32.908;2022-11-12T08:55:57;26.23;;;12.63;;
72584;SDS011;60618;40.084;32.908;2022-11-12T08:58:24;26.80;;;12.40;;
72584;SDS011;60618;40.084;32.908;2022-11-12T09:00:51;27.13;;;12.95;;
72584;SDS011;60618;40.084;32.908;2022-11-12T09:03:21;23.08;;;12.38;;
72584;SDS011;60618;40.084;32.908;2022-11-12T09:05:50;28.45;;;12.93;;
72584;SDS011;60618;40.084;32.908;2022-11-12T09:08:18;27.40;;;12.57;;
72584;SDS011;60618;40.084;32.908;2022-11-12T09:10:51;26.67;;;12.82;;
72584;SDS011;60618;40.084;32.908;2022-11-12T09:13:18;22.65;;;12.00;;
72584;SDS011;60618;40.084;32.908;2022-11-12T09:15:46;25.08;;;12.52;;
72584;SDS011;60618;40.084;32.908;2022-11-12T09:18:14;24.67;;;12.45;;
72584;SDS011;60618;40.084;32.908;2022-11-12T09:20:44;27.27;;;12.97;;
72584;SDS011;60618;40.084;32.908;2022-11-12T09:23:13;28.35;;;12.90;;
72584;SDS011;60618;40.084;32.908;2022-11-12T09:25:41;24.88;;;12.85;;
72584;SDS011;60618;40.084;32.908;2022-11-12T09:28:12;23.42;;;12.35;;
72584;SDS011;60618;40.084;32.908;2022-11-12T09:30:44;29.88;;;13.10;;
72584;SDS011;60618;40.084;32.908;2022-11-12T09:33:16;25.97;;;12.83;;
72584;SDS011;60618;40.084;32.908;2022-11-12T09:35:45;25.80;;;12.82;;
72584;SDS011;60618;40.084;32.908;2022-11-12T09:38:13;23.77;;;12.52;;
72584;SDS011;60618;40.084;32.908;2022-11-12T09:40:44;27.27;;;12.30;;
72584;SDS011;60618;40.084;32.908;2022-11-12T09:45:55;27.57;;;12.70;;
72584;SDS011;60618;40.084;32.908;2022-11-12T09:48:47;22.88;;;11.82;;
72584;SDS011;60618;40.084;32.908;2022-11-12T09:51:26;23.73;;;11.05;;
72584;SDS011;60618;40.084;32.908;2022-11-12T09:53:56;24.52;;;12.70;;
72584;SDS011;60618;40.084;32.908;2022-11-12T09:56:28;23.00;;;12.23;;
72584;SDS011;60618;40.084;32.908;2022-11-12T09:58:55;23.50;;;12.10;;
72584;SDS011;60618;40.084;32.908;2022-11-12T10:01:23;27.60;;;12.68;;
72584;SDS011;60618;40.084;32.908;2022-11-12T10:10:16;24.42;;;12.40;;
72584;SDS011;60618;40.084;32.908;2022-11-12T10:13:08;24.30;;;12.53;;
72584;SDS011;60618;40.084;32.908;2022-11-12T10:24:44;21.17;;;11.90;;
72584;SDS011;60618;40.084;32.908;2022-11-12T10:27:15;25.20;;;12.53;;
72584;SDS011;60618;40.084;32.908;2022-11-12T10:29:52;33.92;;;12.60;;
72584;SDS011;60618;40.084;32.908;2022-11-12T10:32:28;25.33;;;12.13;;
72584;SDS011;60618;40.084;32.908;2022-11-12T10:34:54;25.42;;;11.88;;
72584;SDS011;60618;40.084;32.908;2022-11-12T10:37:23;24.05;;;12.40;;
72584;SDS011;60618;40.084;32.908;2022-11-12T10:39:54;25.07;;;12.57;;
72584;SDS011;60618;40.084;32.908;2022-11-12T10:42:21;25.95;;;11.25;;
72584;SDS011;60618;40.084;32.908;2022-11-12T10:44:49;22.75;;;11.82;;
72584;SDS011;60618;40.084;32.908;2022-11-12T10:49:58;24.00;;;12.35;;
72584;SDS011;60618;40.084;32.908;2022-11-12T10:52:33;22.73;;;12.30;;
72584;SDS011;60618;40.084;32.908;2022-11-12T10:55:22;22.13;;;11.90;;
72584;SDS011;60618;40.084;32.908;2022-11-12T10:58:05;24.15;;;12.10;;
72584;SDS011;60618;40.084;32.908;2022-11-12T11:00:50;20.70;;;12.40;;
72584;SDS011;60618;40.084;32.908;2022-11-12T11:03:28;25.55;;;13.02;;
72584;SDS011;60618;40.084;32.908;2022-11-12T11:08:43;23.48;;;12.52;;
72584;SDS011;60618;40.084;32.908;2022-11-12T11:13:42;23.35;;;12.88;;
72584;SDS011;60618;40.084;32.908;2022-11-12T11:16:17;23.85;;;12.43;;
72584;SDS011;60618;40.084;32.908;2022-11-12T11:18:47;25.43;;;13.03;;
72584;SDS011;60618;40.084;32.908;2022-11-12T11:26:55;22.85;;;12.38;;
72584;SDS011;60618;40.084;32.908;2022-11-12T11:32:16;22.43;;;12.40;;
72584;SDS011;60618;40.084;32.908;2022-11-12T11:48:18;25.58;;;13.73;;
72584;SDS011;60618;40.084;32.908;2022-11-12T11:54:07;21.80;;;11.88;;
72584;SDS011;60618;40.084;32.908;2022-11-12T11:56:59;23.52;;;12.55;;
72584;SDS011;60618;40.084;32.908;2022-11-12T11:59:36;24.27;;;13.13;;
72584;SDS011;60618;40.084;32.908;2022-11-12T12:07:59;22.42;;;12.30;;
72584;SDS011;60618;40.084;32.908;2022-11-12T12:10:38;26.42;;;13.88;;
72584;SDS011;60618;40.084;32.908;2022-11-12T12:19:40;23.10;;;12.30;;
72584;SDS011;60618;40.084;32.908;2022-11-12T12:22:12;21.38;;;11.85;;
72584;SDS011;60618;40.084;32.908;2022-11-12T12:27:21;23.37;;;12.47;;
72584;SDS011;60618;40.084;32.908;2022-11-12T12:30:00;21.90;;;12.75;;
72584;SDS011;60618;40.084;32.908;2022-11-12T12:32:41;22.95;;;12.10;;
72584;SDS011;60618;40.084;32.908;2022-11-12T12:35:15;20.83;;;12.35;;
72584;SDS011;60618;40.084;32.908;2022-11-12T12:37:47;28.55;;;12.82;;
72584;SDS011;60618;40.084;32.908;2022-11-12T12:43:11;22.48;;;12.57;;
72584;SDS011;60618;40.084;32.908;2022-11-12T12:45:46;25.20;;;13.05;;
72584;SDS011;60618;40.084;32.908;2022-11-12T12:48:20;22.85;;;12.57;;
72584;SDS011;60618;40.084;32.908;2022-11-12T12:50:54;29.23;;;12.65;;
72584;SDS011;60618;40.084;32.908;2022-11-12T12:55:51;21.25;;;11.40;;
72584;SDS011;60618;40.084;32.908;2022-11-12T13:01:04;24.98;;;12.93;;
72584;SDS011;60618;40.084;32.908;2022-11-12T13:03:56;18.40;;;11.10;;
72584;SDS011;60618;40.084;32.908;2022-11-12T13:06:27;21.73;;;11.73;;
72584;SDS011;60618;40.084;32.908;2022-11-12T13:09:04;22.25;;;12.30;;
72584;SDS011;60618;40.084;32.908;2022-11-12T13:11:48;20.23;;;11.82;;
72584;SDS011;60618;40.084;32.908;2022-11-12T13:32:40;24.35;;;12.95;;
72584;SDS011;60618;40.084;32.908;2022-11-12T13:35:27;22.07;;;12.07;;
72584;SDS011;60618;40.084;32.908;2022-11-12T13:46:20;22.60;;;11.70;;
72584;SDS011;60618;40.084;32.908;2022-11-12T13:53:57;20.17;;;11.63;;
72584;SDS011;60618;40.084;32.908;2022-11-12T13:56:31;20.20;;;11.18;;
72584;SDS011;60618;40.084;32.908;2022-11-12T13:59:19;20.48;;;11.77;;
72584;SDS011;60618;40.084;32.908;2022-11-12T14:01:48;24.83;;;12.63;;
72584;SDS011;60618;40.084;32.908;2022-11-12T14:04:18;23.38;;;12.30;;
72584;SDS011;60618;40.084;32.908;2022-11-12T14:13:11;64.45;;;13.48;;
72584;SDS011;60618;40.084;32.908;2022-11-12T14:20:55;21.77;;;11.63;;
72584;SDS011;60618;40.084;32.908;2022-11-12T14:23:22;23.40;;;12.45;;
72584;SDS011;60618;40.084;32.908;2022-11-12T14:25:52;23.90;;;13.05;;
72584;SDS011;60618;40.084;32.908;2022-11-12T14:28:33;26.00;;;13.10;;
72584;SDS011;60618;40.084;32.908;2022-11-12T14:31:01;28.38;;;13.70;;
72584;SDS011;60618;40.084;32.908;2022-11-12T14:33:31;27.35;;;12.60;;
72584;SDS011;60618;40.084;32.908;2022-11-12T14:36:03;23.45;;;12.18;;
72584;SDS011;60618;40.084;32.908;2022-11-12T14:38:32;24.75;;;12.50;;
72584;SDS011;60618;40.084;32.908;2022-11-12T14:41:09;25.47;;;12.83;;
72584;SDS011;60618;40.084;32.908;2022-11-12T14:43:46;22.05;;;11.93;;
72584;SDS011;60618;40.084;32.908;2022-11-12T14:46:53;21.33;;;12.25;;
72584;SDS011;60618;40.084;32.908;2022-11-12T14:52:03;19.85;;;11.77;;
72584;SDS011;60618;40.084;32.908;2022-11-12T14:54:45;35.47;;;12.53;;
72584;SDS011;60618;40.084;32.908;2022-11-12T14:57:22;23.95;;;11.38;;
72584;SDS011;60618;40.084;32.908;2022-11-12T14:59:53;24.20;;;12.95;;
72584;SDS011;60618;40.084;32.908;2022-11-12T15:02:25;21.42;;;11.80;;
72584;SDS011;60618;40.084;32.908;2022-11-12T15:05:18;27.35;;;12.45;;
72584;SDS011;60618;40.084;32.908;2022-11-12T15:07:51;27.63;;;12.93;;
72584;SDS011;60618;40.084;32.908;2022-11-12T15:13:12;28.27;;;13.85;;
72584;SDS011;60618;40.084;32.908;2022-11-12T15:15:51;24.45;;;12.80;;
72584;SDS011;60618;40.084;32.908;2022-11-12T15:18:20;26.25;;;12.48;;
72584;SDS011;60618;40.084;32.908;2022-11-12T15:23:46;29.38;;;14.10;;
72584;SDS011;60618;40.084;32.908;2022-11-12T15:26:39;28.98;;;13.90;;
72584;SDS011;60618;40.084;32.908;2022-11-12T15:31:44;29.85;;;13.85;;
72584;SDS011;60618;40.084;32.908;2022-11-12T15:37:00;26.52;;;13.18;;
72584;SDS011;60618;40.084;32.908;2022-11-12T15:39:31;27.75;;;14.07;;
72584;SDS011;60618;40.084;32.908;2022-11-12T15:42:26;29.30;;;13.50;;
72584;SDS011;60618;40.084;32.908;2022-11-12T15:44:59;27.83;;;13.40;;
72584;SDS011;60618;40.084;32.908;2022-11-12T15:47:30;26.83;;;13.17;;
72584;SDS011;60618;40.084;32.908;2022-11-12T15:49:57;29.95;;;14.52;;
72584;SDS011;60618;40.084;32.908;2022-11-12T15:52:25;30.27;;;13.95;;
72584;SDS011;60618;40.084;32.908;2022-11-12T15:54:56;28.67;;;14.05;;
72584;SDS011;60618;40.084;32.908;2022-11-12T15:57:24;30.15;;;13.85;;
72584;SDS011;60618;40.084;32.908;2022-11-12T16:00:03;25.77;;;13.40;;
72584;SDS011;60618;40.084;32.908;2022-11-12T16:02:35;26.45;;;13.15;;
72584;SDS011;60618;40.084;32.908;2022-11-12T16:05:07;26.13;;;13.77;;
72584;SDS011;60618;40.084;32.908;2022-11-12T16:07:44;27.10;;;13.45;;
72584;SDS011;60618;40.084;32.908;2022-11-12T16:10:15;29.88;;;13.95;;
72584;SDS011;60618;40.084;32.908;2022-11-12T16:12:46;27.60;;;13.00;;
72584;SDS011;60618;40.084;32.908;2022-11-12T16:15:14;24.50;;;12.25;;
72584;SDS011;60618;40.084;32.908;2022-11-12T16:17:48;29.98;;;13.45;;
72584;SDS011;60618;40.084;32.908;2022-11-12T16:20:20;24.92;;;12.32;;
72584;SDS011;60618;40.084;32.908;2022-11-12T16:22:50;25.45;;;13.15;;
72584;SDS011;60618;40.084;32.908;2022-11-12T16:25:18;23.70;;;12.23;;
72584;SDS011;60618;40.084;32.908;2022-11-12T16:27:46;28.48;;;14.35;;
72584;SDS011;60618;40.084;32.908;2022-11-12T16:30:21;30.83;;;14.40;;
72584;SDS011;60618;40.084;32.908;2022-11-12T16:32:50;29.52;;;15.00;;
72584;SDS011;60618;40.084;32.908;2022-11-12T16:35:22;29.40;;;14.57;;
72584;SDS011;60618;40.084;32.908;2022-11-12T16:37:51;35.90;;;15.93;;
72584;SDS011;60618;40.084;32.908;2022-11-12T16:40:20;32.63;;;15.40;;
72584;SDS011;60618;40.084;32.908;2022-11-12T16:42:49;30.15;;;14.07;;
72584;SDS011;60618;40.084;32.908;2022-11-12T16:45:18;27.13;;;14.40;;
72584;SDS011;60618;40.084;32.908;2022-11-12T16:47:51;27.38;;;14.05;;
72584;SDS011;60618;40.084;32.908;2022-11-12T16:50:44;24.87;;;13.40;;
72584;SDS011;60618;40.084;32.908;2022-11-12T16:53:12;23.08;;;11.82;;
72584;SDS011;60618;40.084;32.908;2022-11-12T16:55:39;22.88;;;11.82;;
72584;SDS011;60618;40.084;32.908;2022-11-12T16:58:06;24.48;;;12.50;;